createdAt,value
2022-08-20T00:02:11.028Z,5.07
2022-08-20T00:04:39.540Z,5.60
2022-08-20T00:07:07.116Z,6.18
2022-08-20T00:09:36.904Z,3.65
2022-08-20T00:12:06.453Z,5.10
2022-08-20T00:14:34.327Z,5.80
2022-08-20T00:17:02.300Z,4.05
2022-08-20T00:19:29.333Z,4.90
2022-08-20T00:21:58.058Z,3.75
2022-08-20T00:24:26.004Z,3.92
2022-08-20T00:26:53.085Z,4.55
2022-08-20T00:29:20.781Z,3.97
2022-08-20T00:31:50.695Z,5.93
2022-08-20T00:34:18.071Z,3.22
2022-08-20T00:36:45.132Z,4.78
2022-08-20T00:39:12.095Z,4.95
2022-08-20T00:41:39.092Z,3.05
2022-08-20T00:44:16.865Z,3.80
2022-08-20T00:46:47.737Z,4.68
2022-08-20T00:49:19.041Z,2.83
2022-08-20T00:52:22.354Z,4.30
2022-08-20T00:54:53.760Z,4.53
2022-08-20T00:57:43.872Z,5.07
2022-08-20T01:00:28.429Z,3.58
2022-08-20T01:02:57.481Z,4.78
2022-08-20T01:05:27.835Z,3.80
2022-08-20T01:07:58.011Z,5.13
2022-08-20T01:10:29.939Z,7.97
2022-08-20T01:12:59.674Z,4.35
2022-08-20T01:15:32.043Z,4.03
2022-08-20T01:18:01.252Z,5.43
2022-08-20T01:20:32.646Z,4.55
2022-08-20T01:23:30.719Z,3.95
2022-08-20T01:26:04.331Z,2.85
2022-08-20T01:28:37.127Z,6.97
2022-08-20T01:31:06.720Z,4.18
2022-08-20T01:33:33.901Z,3.78
2022-08-20T01:36:01.051Z,3.50
2022-08-20T01:38:29.950Z,3.53
2022-08-20T01:41:28.439Z,3.85
2022-08-20T01:43:58.329Z,2.50
2022-08-20T01:46:33.042Z,3.05
2022-08-20T01:49:32.592Z,2.05
2022-08-20T01:52:02.378Z,2.40
2022-08-20T01:54:29.241Z,2.85
2022-08-20T01:57:12.106Z,3.60
2022-08-20T01:59:40.209Z,2.60
2022-08-20T02:02:07.766Z,2.88
2022-08-20T02:04:35.410Z,3.45
2022-08-20T02:07:05.548Z,3.03
2022-08-20T02:09:37.023Z,3.67
2022-08-20T02:12:06.769Z,3.63
2022-08-20T02:14:34.074Z,3.80
2022-08-20T02:17:01.283Z,2.67
2022-08-20T02:19:37.406Z,3.38
2022-08-20T02:22:12.935Z,2.13
2022-08-20T02:24:39.926Z,2.63
2022-08-20T02:27:06.870Z,2.60
2022-08-20T02:29:33.729Z,2.03
2022-08-20T02:32:24.873Z,3.05
2022-08-20T02:34:47.748Z,3.40
2022-08-20T02:37:18.799Z,2.10
2022-08-20T02:42:13.590Z,2.22
2022-08-20T02:44:40.546Z,2.58
2022-08-20T02:47:08.027Z,4.07
2022-08-20T02:49:35.759Z,2.78
2022-08-20T02:52:02.826Z,3.90
2022-08-20T02:54:29.701Z,2.50
2022-08-20T02:56:56.733Z,2.30
2022-08-20T02:59:23.710Z,3.78
2022-08-20T03:01:59.268Z,2.85
2022-08-20T03:04:29.133Z,2.47
2022-08-20T03:06:56.250Z,3.05
2022-08-20T03:09:23.131Z,64.22
2022-08-20T03:11:50.033Z,2.53
2022-08-20T03:14:17.023Z,1.83
2022-08-20T03:16:43.950Z,3.40
2022-08-20T03:19:10.763Z,2.28
2022-08-20T03:21:37.761Z,1.85
2022-08-20T03:24:04.737Z,2.38
2022-08-20T03:26:31.763Z,2.63
2022-08-20T03:28:58.625Z,2.88
2022-08-20T03:31:25.506Z,2.83
2022-08-20T03:33:53.452Z,2.20
2022-08-20T03:36:28.381Z,2.20
2022-08-20T03:39:00.843Z,6.00
2022-08-20T03:41:28.951Z,3.20
2022-08-20T03:43:56.089Z,2.95
2022-08-20T03:46:23.959Z,2.65
2022-08-20T03:49:00.409Z,3.30
2022-08-20T03:51:29.303Z,3.20
2022-08-20T03:53:56.485Z,1.70
2022-08-20T03:56:23.445Z,2.92
2022-08-20T03:58:50.290Z,3.08
2022-08-20T04:01:45.031Z,1.98
2022-08-20T04:04:04.795Z,2.60
2022-08-20T04:06:31.972Z,2.00
2022-08-20T04:08:58.868Z,3.03
2022-08-20T04:11:25.758Z,2.90
2022-08-20T04:13:52.808Z,3.85
2022-08-20T04:16:19.699Z,2.85
2022-08-20T04:18:58.594Z,2.75
2022-08-20T04:21:29.667Z,2.55
2022-08-20T04:26:27.251Z,2.65
2022-08-20T04:28:55.829Z,2.30
2022-08-20T04:31:33.471Z,3.72
2022-08-20T04:34:02.234Z,2.22
2022-08-20T04:36:29.726Z,2.47
2022-08-20T04:38:56.658Z,2.63
2022-08-20T04:41:24.467Z,1.92
2022-08-20T04:43:54.518Z,2.50
2022-08-20T04:46:24.182Z,2.83
2022-08-20T04:48:51.113Z,1.70
2022-08-20T04:51:18.822Z,2.15
2022-08-20T04:53:51.866Z,1.30
2022-08-20T04:56:26.755Z,2.38
2022-08-20T04:58:56.286Z,6.40
2022-08-20T05:01:24.139Z,8.35
2022-08-20T05:03:51.579Z,3.80
2022-08-20T05:06:18.980Z,5.00
2022-08-20T05:08:46.185Z,7.15
2022-08-20T05:11:34.773Z,5.15
2022-08-20T05:14:09.316Z,12.60
2022-08-20T05:16:38.677Z,8.90
2022-08-20T05:19:08.975Z,6.95
2022-08-20T05:21:36.201Z,4.60
2022-08-20T05:24:03.235Z,7.80
2022-08-20T05:26:30.081Z,4.57
2022-08-20T05:28:58.988Z,3.50
2022-08-20T05:31:31.608Z,7.45
2022-08-20T05:34:00.142Z,4.65
2022-08-20T05:36:27.221Z,4.85
2022-08-20T05:38:54.991Z,4.75
2022-08-20T05:41:27.734Z,5.30
2022-08-20T05:43:57.827Z,4.20
2022-08-20T05:46:24.775Z,5.50
2022-08-20T05:48:51.813Z,3.13
2022-08-20T05:51:18.773Z,4.75
2022-08-20T05:53:45.900Z,14.55
2022-08-20T05:56:12.750Z,2.53
2022-08-20T05:58:39.656Z,5.43
2022-08-20T06:01:06.891Z,2.05
2022-08-20T06:03:52.905Z,3.40
2022-08-20T06:06:45.096Z,3.05
2022-08-20T06:09:07.929Z,1.88
2022-08-20T06:11:37.234Z,1.80
2022-08-20T06:14:05.999Z,2.85
2022-08-20T06:16:32.995Z,1.95
2022-08-20T06:19:02.664Z,2.00
2022-08-20T06:21:31.670Z,3.55
2022-08-20T06:24:00.875Z,2.15
2022-08-20T06:26:30.263Z,4.07
2022-08-20T06:29:00.436Z,3.78
2022-08-20T06:31:28.089Z,1.05
2022-08-20T06:33:54.963Z,3.05
2022-08-20T06:36:22.334Z,2.10
2022-08-20T06:38:49.448Z,2.17
2022-08-20T06:41:17.552Z,1.80
2022-08-20T06:43:44.593Z,1.48
2022-08-20T06:46:11.474Z,3.17
2022-08-20T06:48:38.539Z,1.90
2022-08-20T06:51:06.968Z,1.52
2022-08-20T06:53:34.022Z,1.10
2022-08-20T06:56:01.298Z,1.85
2022-08-20T06:58:38.328Z,2.20
2022-08-20T07:01:11.248Z,1.00
2022-08-20T07:03:55.730Z,3.22
2022-08-20T07:06:26.046Z,1.90
2022-08-20T07:08:54.399Z,2.13
2022-08-20T07:11:26.602Z,1.92
2022-08-20T07:13:57.053Z,3.67
2022-08-20T07:16:24.382Z,3.08
2022-08-20T07:18:51.313Z,1.85
2022-08-20T07:21:18.664Z,0.75
2022-08-20T07:23:45.684Z,1.35
2022-08-20T07:26:17.229Z,2.13
2022-08-20T07:28:44.202Z,1.85
2022-08-20T07:31:31.217Z,1.67
2022-08-20T07:33:58.953Z,3.63
2022-08-20T07:36:28.511Z,1.17
2022-08-20T07:38:56.976Z,1.67
2022-08-20T07:41:24.802Z,1.73
2022-08-20T07:43:51.844Z,1.73
2022-08-20T07:46:21.795Z,1.73
2022-08-20T07:48:50.653Z,1.77
2022-08-20T07:51:20.270Z,2.00
2022-08-20T07:53:48.654Z,3.55
2022-08-20T07:56:19.643Z,3.67
2022-08-20T07:58:52.685Z,5.65
2022-08-20T08:01:29.934Z,7.57
2022-08-20T08:03:58.040Z,5.03
2022-08-20T08:06:30.566Z,6.38
2022-08-20T08:09:03.071Z,4.75
2022-08-20T08:11:31.659Z,3.25
2022-08-20T08:14:00.107Z,4.35
2022-08-20T08:16:28.829Z,2.15
2022-08-20T08:18:57.037Z,2.15
2022-08-20T08:21:24.249Z,3.63
2022-08-20T08:23:51.273Z,3.10
2022-08-20T08:26:19.604Z,2.80
2022-08-20T08:28:47.103Z,4.72
2022-08-20T08:31:15.003Z,5.95
2022-08-20T08:33:42.363Z,5.05
2022-08-20T08:36:11.843Z,9.25
2022-08-20T08:38:41.531Z,5.82
2022-08-20T08:41:34.791Z,17.13
2022-08-20T08:44:08.623Z,10.02
2022-08-20T08:46:44.933Z,18.02
2022-08-20T08:49:16.721Z,7.32
2022-08-20T08:51:49.435Z,11.13
2022-08-20T08:54:23.304Z,8.30
2022-08-20T08:56:50.764Z,8.70
2022-08-20T08:59:18.978Z,7.63
2022-08-20T09:01:55.097Z,14.55
2022-08-20T09:04:31.884Z,11.20
2022-08-20T09:07:01.951Z,9.02
2022-08-20T09:09:39.172Z,13.25
2022-08-20T09:12:13.550Z,11.05
2022-08-20T09:14:41.497Z,8.30
2022-08-20T09:17:08.512Z,7.53
2022-08-20T09:19:36.076Z,5.13
2022-08-20T09:22:15.622Z,7.50
2022-08-20T09:24:43.603Z,6.00
2022-08-20T09:27:11.620Z,3.15
2022-08-20T09:29:39.527Z,6.10
2022-08-20T09:32:09.564Z,14.20
2022-08-20T09:34:42.921Z,19.27
2022-08-20T09:37:10.078Z,6.45
2022-08-20T09:39:37.185Z,7.45
2022-08-20T09:42:24.899Z,9.77
2022-08-20T09:44:52.350Z,5.22
2022-08-20T09:47:19.659Z,7.55
2022-08-20T09:49:47.222Z,8.27
2022-08-20T09:52:26.130Z,10.85
2022-08-20T09:54:57.299Z,7.38
2022-08-20T09:57:24.662Z,8.75
2022-08-20T09:59:59.346Z,8.70
2022-08-20T10:02:26.412Z,6.13
2022-08-20T10:04:53.437Z,6.00
2022-08-20T10:07:20.453Z,6.55
2022-08-20T10:09:47.485Z,6.80
2022-08-20T10:12:14.481Z,5.32
2022-08-20T10:14:41.598Z,9.75
2022-08-20T10:17:08.661Z,5.43
2022-08-20T10:19:35.711Z,7.05
2022-08-20T10:22:02.772Z,6.28
2022-08-20T10:24:30.100Z,10.30
2022-08-20T10:26:59.440Z,7.60
2022-08-20T10:29:27.937Z,8.27
2022-08-20T10:31:57.298Z,10.52
2022-08-20T10:34:25.861Z,18.23
2022-08-20T10:36:53.244Z,9.88
2022-08-20T10:39:20.443Z,9.95
2022-08-20T10:41:47.467Z,15.32
2022-08-20T10:44:14.523Z,9.32
2022-08-20T10:46:41.576Z,18.02
2022-08-20T10:49:08.594Z,8.60
2022-08-20T10:51:35.625Z,12.70
2022-08-20T10:54:02.806Z,10.55
2022-08-20T10:56:35.427Z,11.80
2022-08-20T10:59:02.765Z,7.85
2022-08-20T11:01:33.929Z,13.25
2022-08-20T11:04:03.567Z,12.55
2022-08-20T11:06:30.941Z,9.57
2022-08-20T11:08:57.966Z,5.95
2022-08-20T11:11:24.936Z,6.75
2022-08-20T11:13:51.957Z,4.63
2022-08-20T11:16:19.070Z,6.03
2022-08-20T11:18:47.546Z,4.82
2022-08-20T11:21:15.345Z,5.28
2022-08-20T11:23:42.335Z,5.43
2022-08-20T11:26:10.174Z,5.93
2022-08-20T11:28:37.187Z,2.55
2022-08-20T11:31:04.126Z,3.80
2022-08-20T11:33:31.041Z,3.58
2022-08-20T11:35:58.170Z,8.43
2022-08-20T11:38:25.283Z,2.17
2022-08-20T11:40:52.250Z,4.38
2022-08-20T11:43:19.176Z,4.32
2022-08-20T11:45:53.081Z,6.57
2022-08-20T11:48:20.237Z,3.75
2022-08-20T11:50:48.038Z,3.88
2022-08-20T11:53:15.438Z,4.13
2022-08-20T11:55:42.708Z,4.05
2022-08-20T11:58:10.374Z,6.00
2022-08-20T12:00:37.360Z,4.10
2022-08-20T12:03:09.046Z,2.90
2022-08-20T12:05:38.205Z,5.63
2022-08-20T12:08:05.817Z,2.92
2022-08-20T12:10:33.023Z,6.32
2022-08-20T12:13:00.015Z,5.40
2022-08-20T12:15:29.791Z,4.97
2022-08-20T12:17:56.883Z,4.95
2022-08-20T12:20:24.578Z,5.10
2022-08-20T12:22:51.679Z,3.90
2022-08-20T12:25:18.758Z,3.88
2022-08-20T12:27:46.755Z,4.10
2022-08-20T12:30:23.031Z,14.10
2022-08-20T12:32:50.416Z,10.52
2022-08-20T12:35:18.956Z,8.82
2022-08-20T12:37:46.996Z,17.00
2022-08-20T12:40:31.781Z,4.53
2022-08-20T12:42:59.161Z,3.80
2022-08-20T12:45:26.287Z,4.65
2022-08-20T12:47:53.333Z,14.88
2022-08-20T12:50:23.419Z,11.70
2022-08-20T12:52:51.121Z,2.47
2022-08-20T12:55:19.956Z,6.47
2022-08-20T12:57:54.144Z,4.70
2022-08-20T13:00:27.293Z,2.80
2022-08-20T13:02:56.748Z,4.22
2022-08-20T13:05:24.372Z,22.90
2022-08-20T13:07:52.131Z,6.43
2022-08-20T13:10:22.678Z,10.48
2022-08-20T13:12:50.344Z,5.00
2022-08-20T13:15:17.680Z,5.55
2022-08-20T13:17:45.222Z,23.38
2022-08-20T13:20:17.651Z,10.50
2022-08-20T13:22:45.328Z,8.32
2022-08-20T13:25:15.924Z,7.57
2022-08-20T13:27:44.133Z,6.25
2022-08-20T13:30:15.975Z,11.52
2022-08-20T13:32:43.281Z,5.97
2022-08-20T13:35:12.050Z,7.68
2022-08-20T13:37:40.649Z,5.93
2022-08-20T13:40:09.441Z,11.98
2022-08-20T13:42:37.207Z,7.15
2022-08-20T13:45:06.280Z,9.05
2022-08-20T13:47:36.439Z,4.20
2022-08-20T13:50:22.230Z,7.50
2022-08-20T13:52:49.269Z,5.60
2022-08-20T13:55:19.235Z,19.73
2022-08-20T13:57:47.615Z,14.57
2022-08-20T14:00:30.963Z,9.75
2022-08-20T14:02:59.001Z,6.10
2022-08-20T14:05:26.985Z,11.73
2022-08-20T14:07:54.071Z,7.25
2022-08-20T14:10:25.594Z,14.07
2022-08-20T14:12:53.305Z,6.30
2022-08-20T14:15:20.488Z,5.22
2022-08-20T14:17:53.959Z,4.00
2022-08-20T14:20:24.197Z,2.70
2022-08-20T14:22:51.319Z,4.13
2022-08-20T14:25:20.624Z,4.63
2022-08-20T14:27:47.544Z,4.13
2022-08-20T14:30:17.677Z,4.18
2022-08-20T14:32:44.728Z,9.17
2022-08-20T14:35:12.215Z,6.32
2022-08-20T14:37:42.391Z,4.03
2022-08-20T14:40:13.251Z,5.77
2022-08-20T14:42:40.925Z,5.40
2022-08-20T14:45:13.392Z,4.03
2022-08-20T14:47:44.426Z,1.92
2022-08-20T14:52:43.649Z,1.73
2022-08-20T14:55:16.427Z,4.32
2022-08-20T14:57:43.803Z,4.35
2022-08-20T15:00:16.044Z,4.18
2022-08-20T15:02:43.118Z,2.72
2022-08-20T15:05:11.180Z,1.90
2022-08-20T15:07:40.935Z,7.47
2022-08-20T15:10:13.139Z,4.78
2022-08-20T15:12:43.068Z,4.65
2022-08-20T15:15:15.465Z,6.85
2022-08-20T15:17:49.060Z,4.95
2022-08-20T15:20:20.603Z,3.97
2022-08-20T15:22:49.440Z,5.80
2022-08-20T15:25:19.546Z,5.93
2022-08-20T15:27:47.041Z,6.88
2022-08-20T15:30:23.273Z,2.95
2022-08-20T15:32:54.964Z,4.30
2022-08-20T15:35:24.814Z,2.63
2022-08-20T15:37:54.663Z,4.45
2022-08-20T15:40:27.834Z,9.07
2022-08-20T15:42:56.195Z,5.90
2022-08-20T15:45:23.454Z,6.35
2022-08-20T15:47:53.532Z,8.07
2022-08-20T15:51:01.819Z,5.78
2022-08-20T15:53:57.069Z,7.15
2022-08-20T15:57:01.958Z,2.95
2022-08-20T15:59:34.719Z,7.10
2022-08-20T16:02:07.537Z,4.80
2022-08-20T16:04:37.163Z,4.72
2022-08-20T16:07:13.563Z,5.32
2022-08-20T16:09:54.231Z,5.15
2022-08-20T16:12:33.365Z,5.15
2022-08-20T16:15:04.016Z,8.10
2022-08-20T16:17:46.051Z,4.07
2022-08-20T16:20:13.080Z,5.85
2022-08-20T16:22:45.422Z,4.68
2022-08-20T16:25:13.899Z,6.85
2022-08-20T16:27:54.019Z,8.20
2022-08-20T16:30:33.099Z,8.40
2022-08-20T16:33:14.208Z,7.10
2022-08-20T16:38:29.070Z,5.47
2022-08-20T16:41:06.964Z,8.27
2022-08-20T16:44:04.149Z,5.45
2022-08-20T16:46:38.080Z,6.90
2022-08-20T16:49:14.112Z,7.75
2022-08-20T16:51:49.433Z,12.65
2022-08-20T16:54:28.407Z,6.97
2022-08-20T16:57:04.647Z,7.57
2022-08-20T16:59:33.296Z,6.93
2022-08-20T17:02:10.250Z,4.20
2022-08-20T17:04:59.293Z,7.22
2022-08-20T17:07:40.604Z,8.00
2022-08-20T17:10:33.831Z,4.18
2022-08-20T17:13:23.798Z,5.85
2022-08-20T17:16:02.761Z,3.28
2022-08-20T17:18:39.629Z,5.22
2022-08-20T17:21:16.057Z,4.13
2022-08-20T17:23:56.089Z,3.78
2022-08-20T17:26:44.375Z,5.80
2022-08-20T17:29:21.785Z,4.32
2022-08-20T17:31:55.317Z,2.53
2022-08-20T17:34:30.004Z,5.07
2022-08-20T17:36:59.115Z,6.97
2022-08-20T17:39:29.572Z,8.38
2022-08-20T17:42:14.885Z,6.38
2022-08-20T17:44:46.025Z,4.22
2022-08-20T17:47:17.129Z,5.50
2022-08-20T17:52:39.616Z,35.63
2022-08-20T17:55:08.840Z,122.63
2022-08-20T17:57:40.479Z,138.73
2022-08-20T18:00:14.821Z,193.40
2022-08-20T18:02:43.964Z,70.05
2022-08-20T18:05:20.413Z,47.42
2022-08-20T18:08:10.299Z,30.52
2022-08-20T18:11:03.959Z,24.35
2022-08-20T18:13:45.059Z,28.17
2022-08-20T18:16:39.977Z,18.90
2022-08-20T18:19:21.034Z,17.73
2022-08-20T18:22:03.107Z,15.38
2022-08-20T18:25:21.664Z,16.45
2022-08-20T18:28:02.771Z,10.43
2022-08-20T18:33:10.057Z,8.55
2022-08-20T18:35:46.145Z,11.23
2022-08-20T18:38:43.593Z,7.90
2022-08-20T18:41:14.712Z,10.25
2022-08-20T18:46:27.420Z,11.00
2022-08-20T18:49:00.270Z,13.93
2022-08-20T18:51:41.821Z,12.23
2022-08-20T18:54:22.305Z,13.30
2022-08-20T18:57:05.089Z,18.30
2022-08-20T18:59:39.123Z,18.48
2022-08-20T19:02:19.632Z,26.92
2022-08-20T19:04:54.816Z,14.48
2022-08-20T19:07:48.400Z,15.20
2022-08-20T19:10:42.110Z,15.65
2022-08-20T19:13:24.139Z,8.73
2022-08-20T19:15:57.507Z,10.32
2022-08-20T19:18:33.679Z,9.68
2022-08-20T19:21:04.371Z,10.05
2022-08-20T19:23:40.357Z,8.85
2022-08-20T19:26:25.095Z,8.60
2022-08-20T19:29:13.163Z,10.35
2022-08-20T19:31:44.511Z,9.68
2022-08-20T19:34:24.031Z,12.10
2022-08-20T19:37:32.257Z,7.53
2022-08-20T19:40:19.922Z,8.05
2022-08-20T19:42:47.721Z,10.00
2022-08-20T19:45:31.168Z,6.32
2022-08-20T19:48:27.098Z,10.88
2022-08-20T19:51:17.763Z,5.45
2022-08-20T19:53:47.831Z,7.85
2022-08-20T19:56:28.098Z,10.15
2022-08-20T19:59:05.057Z,8.93
2022-08-20T20:01:33.945Z,7.20
2022-08-20T20:04:08.472Z,5.57
2022-08-20T20:06:38.976Z,10.57
2022-08-20T20:09:17.939Z,5.57
2022-08-20T20:11:49.093Z,10.10
2022-08-20T20:14:18.139Z,6.40
2022-08-20T20:16:50.672Z,10.38
2022-08-20T20:19:27.222Z,12.25
2022-08-20T20:22:19.889Z,8.75
2022-08-20T20:25:14.698Z,8.30
2022-08-20T20:27:52.256Z,17.17
2022-08-20T20:30:49.004Z,9.88
2022-08-20T20:33:24.380Z,8.93
2022-08-20T20:36:04.949Z,5.93
2022-08-20T20:38:34.096Z,5.20
2022-08-20T20:41:06.057Z,5.85
2022-08-20T20:43:42.014Z,3.40
2022-08-20T20:46:20.262Z,14.68
2022-08-20T20:48:55.693Z,10.65
2022-08-20T20:51:34.833Z,7.80
2022-08-20T20:54:05.964Z,3.17
2022-08-20T20:56:36.733Z,3.17
2022-08-20T20:59:08.227Z,8.00
2022-08-20T21:01:48.200Z,2.72
2022-08-20T21:04:25.282Z,1.75
2022-08-20T21:07:01.186Z,5.15
2022-08-20T21:09:29.080Z,5.25
2022-08-20T21:11:56.554Z,5.47
2022-08-20T21:14:25.125Z,5.45
2022-08-20T21:16:54.306Z,13.15
2022-08-20T21:19:25.143Z,10.07
2022-08-20T21:21:53.677Z,6.93
2022-08-20T21:24:22.724Z,9.05
2022-08-20T21:26:58.924Z,3.80
2022-08-20T21:29:33.961Z,8.18
2022-08-20T21:32:01.762Z,6.38
2022-08-20T21:34:29.209Z,5.13
2022-08-20T21:36:56.556Z,3.67
2022-08-20T21:39:26.689Z,3.67
2022-08-20T21:41:58.941Z,6.05
2022-08-20T21:44:31.366Z,3.70
2022-08-20T21:47:03.408Z,4.55
2022-08-20T21:49:31.947Z,3.92
2022-08-20T21:52:01.745Z,3.72
2022-08-20T21:54:30.520Z,4.32
2022-08-20T21:57:22.367Z,3.85
2022-08-20T22:00:02.830Z,3.53
2022-08-20T22:02:31.001Z,2.97
2022-08-20T22:04:59.744Z,1.75
2022-08-20T22:07:30.148Z,3.45
2022-08-20T22:12:29.536Z,10.27
2022-08-20T22:14:58.615Z,12.38
2022-08-20T22:17:25.756Z,3.20
2022-08-20T22:19:54.402Z,1.90
2022-08-20T22:22:23.210Z,3.33
2022-08-20T22:24:50.562Z,13.15
2022-08-20T22:27:17.929Z,11.50
2022-08-20T22:29:46.856Z,9.60
2022-08-20T22:32:15.304Z,9.73
2022-08-20T22:34:44.586Z,7.05
2022-08-20T22:37:13.455Z,8.05
2022-08-20T22:39:42.579Z,3.30
2022-08-20T22:42:10.174Z,4.30
2022-08-20T22:44:37.601Z,3.45
2022-08-20T22:47:07.906Z,3.42
2022-08-20T22:49:37.405Z,2.42
2022-08-20T22:52:05.287Z,2.03
2022-08-20T22:54:33.753Z,5.20
2022-08-20T22:57:01.191Z,2.95
2022-08-20T22:59:29.019Z,5.03
2022-08-20T23:01:58.611Z,6.68
2022-08-20T23:04:29.413Z,4.18
2022-08-20T23:06:57.606Z,5.53
2022-08-20T23:09:25.715Z,4.50
2022-08-20T23:11:53.479Z,3.63
2022-08-20T23:14:21.278Z,2.63
2022-08-20T23:16:58.636Z,4.32
2022-08-20T23:19:26.444Z,2.08
2022-08-20T23:21:53.790Z,3.63
2022-08-20T23:24:21.974Z,1.25
2022-08-20T23:26:53.265Z,1.98
2022-08-20T23:29:22.545Z,2.00
2022-08-20T23:31:53.267Z,1.35
2022-08-20T23:34:20.439Z,2.53
2022-08-20T23:36:48.099Z,3.58
2022-08-20T23:39:15.238Z,3.25
2022-08-20T23:41:45.431Z,2.47
2022-08-20T23:44:25.896Z,1.88
2022-08-20T23:46:57.116Z,3.33
2022-08-20T23:49:24.224Z,1.97
2022-08-20T23:51:51.182Z,1.33
2022-08-20T23:54:18.300Z,3.72
2022-08-20T23:56:45.425Z,2.90
2022-08-20T23:59:12.383Z,4.28
